Time;durP1;ratioP1;P1;durP2;ratioP2;P2;SDS_P1;SDS_P2;PMS_P1;PMS_P2;Temp;Humidity;BMP_temperature;BMP_pressure;BME280_temperature;BME280_humidity;BME280_pressure;Samples;Min_cycle;Max_cycle;Signal;HPM_P1;HPM_P2
2021/07/24 00:01:08;;;;;;;12.07;8.13;;;;;;;-145.12;100.00;63763.75;344674;28;137465;-71
2021/07/24 00:02:20;;;;;;;11.93;8.40;;;;;;;-145.12;100.00;63763.75;344668;28;137159;-72
2021/07/24 00:03:31;;;;;;;11.13;8.50;;;;;;;-145.12;100.00;63763.75;344960;28;137400;-72
2021/07/24 00:04:43;;;;;;;12.25;7.97;;;;;;;-145.12;100.00;63763.75;344409;28;137359;-72
2021/07/24 00:06:03;;;;;;;12.02;7.85;;;;;;;-145.12;100.00;63763.75;341856;28;136516;-70
2021/07/24 00:07:14;;;;;;;13.20;8.20;;;;;;;-145.12;100.00;63763.75;342111;28;136546;-72
2021/07/24 00:08:26;;;;;;;12.63;8.90;;;;;;;-145.12;100.00;63763.75;344759;28;137360;-71
2021/07/24 00:09:37;;;;;;;10.77;7.95;;;;;;;-145.12;100.00;63763.75;344819;28;137284;-70
2021/07/24 00:10:48;;;;;;;12.73;9.00;;;;;;;-145.12;100.00;63763.75;344519;28;136444;-70
2021/07/24 00:12:00;;;;;;;12.70;8.22;;;;;;;-145.12;100.00;63763.75;342522;28;161402;-70
2021/07/24 00:13:11;;;;;;;12.98;8.60;;;;;;;-145.12;100.00;63763.75;343179;28;136454;-71
2021/07/24 00:14:23;;;;;;;13.80;10.00;;;;;;;-145.12;100.00;63763.75;344557;28;137186;-71
2021/07/24 00:15:34;;;;;;;11.50;8.40;;;;;;;-145.12;100.00;63763.75;343073;28;137474;-70
2021/07/24 00:16:46;;;;;;;11.57;7.95;;;;;;;-145.12;100.00;63763.75;344299;28;138658;-71
2021/07/24 00:17:57;;;;;;;12.93;8.40;;;;;;;-145.12;100.00;63763.75;343743;28;161297;-71
2021/07/24 00:19:09;;;;;;;10.55;7.68;;;;;;;-145.12;100.00;63763.75;343537;28;137194;-70
2021/07/24 00:20:20;;;;;;;12.00;7.78;;;;;;;-145.12;100.00;63763.75;344456;28;138008;-71
2021/07/24 00:21:31;;;;;;;12.43;7.97;;;;;;;-145.12;100.00;63763.75;344719;28;137331;-71
2021/07/24 00:22:42;;;;;;;11.90;8.18;;;;;;;-145.12;100.00;63763.75;344599;28;138457;-71
2021/07/24 00:23:54;;;;;;;12.60;7.97;;;;;;;-145.12;100.00;63763.75;343362;28;138298;-72
2021/07/24 00:25:05;;;;;;;10.80;7.65;;;;;;;-145.12;100.00;63763.75;343306;28;136970;-71
2021/07/24 00:26:16;;;;;;;11.48;7.65;;;;;;;-145.12;100.00;63763.75;344600;28;137219;-71
2021/07/24 00:27:27;;;;;;;11.68;7.93;;;;;;;-145.12;100.00;63763.75;344658;28;138341;-70
2021/07/24 00:28:39;;;;;;;13.85;8.25;;;;;;;-145.12;100.00;63763.75;343440;28;159418;-71
2021/07/24 00:29:52;;;;;;;11.40;7.78;;;;;;;-145.12;100.00;63763.75;343727;28;161786;-72
2021/07/24 00:31:04;;;;;;;12.20;7.80;;;;;;;-145.12;100.00;63763.75;344487;28;136605;-71
2021/07/24 00:32:15;;;;;;;9.15;7.43;;;;;;;-145.12;100.00;63763.75;343228;28;137351;-71
2021/07/24 00:33:26;;;;;;;9.93;7.93;;;;;;;-145.12;100.00;63763.75;343202;28;136482;-72
2021/07/24 00:34:38;;;;;;;12.30;8.43;;;;;;;-145.12;100.00;63763.75;343719;28;161474;-70
2021/07/24 00:35:49;;;;;;;12.25;9.48;;;;;;;-145.12;100.00;63763.75;344581;28;138222;-71
2021/07/24 00:37:00;;;;;;;11.52;7.97;;;;;;;-145.12;100.00;63763.75;344571;28;136500;-72
2021/07/24 00:38:17;;;;;;;10.35;7.82;;;;;;;-145.12;100.00;63763.75;345449;28;137271;-72
2021/07/24 00:39:28;;;;;;;12.95;8.18;;;;;;;-145.12;100.00;63763.75;344269;28;137302;-71
2021/07/24 00:40:42;;;;;;;10.57;7.78;;;;;;;-145.12;100.00;63763.75;344357;28;138434;-71
2021/07/24 00:42:14;;;;;;;10.88;7.90;;;;;;;-145.12;100.00;63763.75;342601;28;160015;-71
2021/07/24 00:43:28;;;;;;;13.18;8.35;;;;;;;-145.12;100.00;63763.75;343203;28;138319;-71
2021/07/24 00:44:44;;;;;;;13.07;7.70;;;;;;;-145.12;100.00;63763.75;344883;28;136511;-71
2021/07/24 00:46:00;;;;;;;14.73;7.85;;;;;;;-145.12;100.00;63763.75;344497;28;137097;-71
2021/07/24 00:47:16;;;;;;;12.95;8.60;;;;;;;-145.12;100.00;63763.75;343148;28;137398;-71
2021/07/24 00:48:34;;;;;;;14.60;8.55;;;;;;;-145.12;100.00;63763.75;343354;28;137069;-71
2021/07/24 00:49:47;;;;;;;10.38;7.82;;;;;;;-145.12;100.00;63763.75;345079;28;138355;-71
2021/07/24 00:50:59;;;;;;;11.57;7.82;;;;;;;-145.12;100.00;63763.75;344453;28;137283;-72
2021/07/24 00:52:20;;;;;;;13.23;7.40;;;;;;;-145.12;100.00;63763.75;344452;28;137329;-73
2021/07/24 00:53:35;;;;;;;9.93;6.57;;;;;;;-145.12;100.00;63763.75;343226;28;138602;-71
2021/07/24 00:54:46;;;;;;;11.20;7.65;;;;;;;-145.12;100.00;63763.75;343987;28;138330;-72
2021/07/24 00:55:59;;;;;;;12.57;8.07;;;;;;;-145.12;100.00;63763.75;343695;28;160301;-72
2021/07/24 00:57:15;;;;;;;9.20;7.82;;;;;;;-145.12;100.00;63763.75;344556;28;138310;-73
2021/07/24 00:58:28;;;;;;;11.43;7.75;;;;;;;-145.12;100.00;63763.75;344614;28;137250;-72
2021/07/24 00:59:41;;;;;;;12.75;7.88;;;;;;;-145.12;100.00;63763.75;344359;28;137237;-71
2021/07/24 01:00:52;;;;;;;12.05;8.02;;;;;;;-145.12;100.00;63763.75;344038;28;137284;-71
2021/07/24 01:02:04;;;;;;;13.85;9.00;;;;;;;-145.12;100.00;63763.75;344523;28;137209;-72
2021/07/24 01:03:16;;;;;;;13.07;7.90;;;;;;;-145.12;100.00;63763.75;344428;28;137579;-72
2021/07/24 01:04:27;;;;;;;13.70;8.68;;;;;;;-145.12;100.00;63763.75;345759;28;136475;-72
2021/07/24 01:05:42;;;;;;;14.23;7.85;;;;;;;-145.12;100.00;63763.75;344597;28;136535;-72
2021/07/24 01:06:56;;;;;;;14.23;8.43;;;;;;;-145.12;100.00;63763.75;343647;28;137452;-72
2021/07/24 01:08:07;;;;;;;11.64;8.68;;;;;;;-145.12;100.00;63763.75;342315;28;161582;-72
2021/07/24 01:09:19;;;;;;;12.25;8.25;;;;;;;-145.12;100.00;63763.75;345872;28;136833;-72
2021/07/24 01:10:33;;;;;;;14.13;8.75;;;;;;;-145.12;100.00;63763.75;345604;28;138455;-72
2021/07/24 01:11:45;;;;;;;12.45;8.20;;;;;;;-145.12;100.00;63763.75;344236;28;137313;-73
2021/07/24 01:12:56;;;;;;;12.35;8.32;;;;;;;-145.12;100.00;63763.75;344637;28;137097;-71
2021/07/24 01:14:07;;;;;;;12.48;7.60;;;;;;;-145.12;100.00;63763.75;343791;28;161415;-72
2021/07/24 01:15:19;;;;;;;12.02;7.68;;;;;;;-145.12;100.00;63763.75;345724;28;137631;-72
2021/07/24 01:16:30;;;;;;;11.82;7.80;;;;;;;-145.12;100.00;63763.75;344427;28;137183;-72
2021/07/24 01:17:42;;;;;;;10.88;8.02;;;;;;;-145.12;100.00;63763.75;343677;28;161275;-72
2021/07/24 01:18:53;;;;;;;10.93;8.05;;;;;;;-145.12;100.00;63763.75;343202;28;138375;-72
2021/07/24 01:20:05;;;;;;;12.10;8.07;;;;;;;-145.12;100.00;63763.75;344552;28;138311;-70
2021/07/24 01:21:25;;;;;;;12.13;8.15;;;;;;;-145.12;100.00;63763.75;342842;28;161402;-72
2021/07/24 01:22:36;;;;;;;13.57;8.18;;;;;;;-145.12;100.00;63763.75;343771;28;159459;-72
2021/07/24 01:23:48;;;;;;;12.50;8.40;;;;;;;-145.12;100.00;63763.75;344196;28;137254;-72
2021/07/24 01:24:59;;;;;;;10.90;8.07;;;;;;;-145.12;100.00;63763.75;343847;28;160228;-72
2021/07/24 01:26:10;;;;;;;12.38;8.30;;;;;;;-145.12;100.00;63763.75;345479;28;137245;-71
2021/07/24 01:27:24;;;;;;;12.95;8.20;;;;;;;-145.12;100.00;63763.75;342920;28;137812;-72
2021/07/24 01:28:42;;;;;;;12.75;7.93;;;;;;;-145.12;100.00;63763.75;343150;28;137336;-72
2021/07/24 01:29:53;;;;;;;14.60;8.32;;;;;;;-145.12;100.00;63763.75;343803;28;159976;-73
2021/07/24 01:31:06;;;;;;;13.32;8.85;;;;;;;-145.12;100.00;63763.75;343435;28;137715;-72
2021/07/24 01:32:17;;;;;;;14.55;7.40;;;;;;;-145.12;100.00;63763.75;341493;28;136602;-72
2021/07/24 01:33:29;;;;;;;12.27;8.45;;;;;;;-145.12;100.00;63763.75;343131;28;136446;-72
2021/07/24 01:34:43;;;;;;;11.27;7.22;;;;;;;-145.12;100.00;63763.75;344268;28;137347;-72
2021/07/24 01:35:55;;;;;;;13.98;8.23;;;;;;;-145.12;100.00;63763.75;342535;28;160769;-71
2021/07/24 01:37:06;;;;;;;12.00;8.38;;;;;;;-145.12;100.00;63763.75;343282;28;138304;-72
2021/07/24 01:38:18;;;;;;;16.95;9.70;;;;;;;-145.12;100.00;63763.75;342919;28;137286;-72
2021/07/24 01:39:30;;;;;;;19.45;9.68;;;;;;;-145.12;100.00;63763.75;344136;28;138297;-72
2021/07/24 01:40:41;;;;;;;15.57;9.00;;;;;;;-145.12;100.00;63763.75;344275;28;136392;-72
2021/07/24 01:41:55;;;;;;;12.88;8.57;;;;;;;-145.12;100.00;63763.75;344245;28;137058;-72
2021/07/24 01:43:06;;;;;;;11.95;6.25;;;;;;;-145.12;100.00;63763.75;344305;28;136545;-72
2021/07/24 01:44:17;;;;;;;15.04;8.86;;;;;;;-145.12;100.00;63763.75;342314;28;161335;-72
2021/07/24 01:45:28;;;;;;;21.50;8.35;;;;;;;-145.12;100.00;63763.75;344645;28;136550;-72
2021/07/24 01:46:40;;;;;;;13.00;6.10;;;;;;;-145.12;100.00;63763.75;344326;28;137205;-72
2021/07/24 01:47:51;;;;;;;9.85;6.18;;;;;;;-145.12;100.00;63763.75;344119;28;136461;-73
2021/07/24 01:53:30;;;;;;;13.90;4.60;;;;;;;-145.12;100.00;63763.75;344486;28;137271;-73
2021/07/24 01:54:43;;;;;;;16.17;5.53;;;;;;;-145.12;100.00;63763.75;343854;28;137044;-71
2021/07/24 01:56:00;;;;;;;14.63;5.35;;;;;;;-145.12;100.00;63763.75;344473;28;137042;-72
2021/07/24 01:57:14;;;;;;;9.55;4.63;;;;;;;-145.12;100.00;63763.75;344557;28;137092;-72
2021/07/24 01:58:32;;;;;;;15.93;4.85;;;;;;;-145.12;100.00;63763.75;343229;28;136492;-72
2021/07/24 01:59:44;;;;;;;13.10;5.55;;;;;;;-145.12;100.00;63763.75;344485;28;138346;-72
2021/07/24 02:00:59;;;;;;;9.23;5.20;;;;;;;-145.12;100.00;63763.75;343585;28;159438;-72
2021/07/24 02:02:13;;;;;;;8.38;4.95;;;;;;;-145.12;100.00;63763.75;344516;28;137721;-72
2021/07/24 02:03:27;;;;;;;9.60;5.05;;;;;;;-145.12;100.00;63763.75;344313;28;138285;-72
2021/07/24 02:04:49;;;;;;;11.25;5.32;;;;;;;-145.12;100.00;63763.75;342810;28;137233;-72
2021/07/24 02:06:02;;;;;;;9.68;4.60;;;;;;;-145.12;100.00;63763.75;343173;28;136807;-71
2021/07/24 02:07:16;;;;;;;6.93;4.18;;;;;;;-145.12;100.00;63763.75;343349;28;137209;-72
2021/07/24 02:08:30;;;;;;;19.73;4.95;;;;;;;-145.12;100.00;63763.75;344306;28;138554;-73
2021/07/24 02:09:48;;;;;;;8.75;4.75;;;;;;;-145.12;100.00;63763.75;344330;28;138047;-71
2021/07/24 02:11:00;;;;;;;8.95;4.88;;;;;;;-145.12;100.00;63763.75;343417;28;136507;-72
2021/07/24 02:12:12;;;;;;;7.78;5.45;;;;;;;-145.12;100.00;63763.75;343167;28;136933;-72
2021/07/24 02:13:24;;;;;;;7.93;4.70;;;;;;;-145.12;100.00;63763.75;344438;28;137437;-72
2021/07/24 02:14:35;;;;;;;7.25;3.75;;;;;;;-145.12;100.00;63763.75;344633;28;138459;-72
2021/07/24 02:15:47;;;;;;;9.13;5.20;;;;;;;-145.12;100.00;63763.75;344224;28;138116;-72
2021/07/24 02:16:58;;;;;;;7.53;5.18;;;;;;;-145.12;100.00;63763.75;343481;28;136466;-72
2021/07/24 02:18:13;;;;;;;9.98;5.38;;;;;;;-145.12;100.00;63763.75;343198;28;138326;-72
2021/07/24 02:19:24;;;;;;;7.47;5.15;;;;;;;-145.12;100.00;63763.75;343147;28;137324;-72
2021/07/24 02:20:36;;;;;;;8.00;4.97;;;;;;;-145.12;100.00;63763.75;344008;28;136473;-72
2021/07/24 02:21:48;;;;;;;10.32;5.85;;;;;;;-145.12;100.00;63763.75;344668;28;137398;-72
2021/07/24 02:22:59;;;;;;;8.82;5.05;;;;;;;-145.12;100.00;63763.75;343712;28;160592;-72
2021/07/24 02:24:11;;;;;;;8.10;5.35;;;;;;;-145.12;100.00;63763.75;344507;28;136511;-71
2021/07/24 02:25:23;;;;;;;9.68;4.90;;;;;;;-145.12;100.00;63763.75;342406;28;160154;-71
2021/07/24 02:26:34;;;;;;;7.93;5.47;;;;;;;-145.12;100.00;63763.75;343725;28;137401;-70
2021/07/24 02:27:46;;;;;;;8.65;6.00;;;;;;;-145.12;100.00;63763.75;344777;28;137115;-71
2021/07/24 02:28:57;;;;;;;13.48;6.30;;;;;;;-145.12;100.00;63763.75;343599;28;137273;-70
2021/07/24 02:30:09;;;;;;;8.52;5.68;;;;;;;-145.12;100.00;63763.75;343467;28;137365;-71
2021/07/24 02:31:20;;;;;;;5.18;3.72;;;;;;;-145.12;100.00;63763.75;343436;28;137222;-71
2021/07/24 02:32:31;;;;;;;5.90;4.53;;;;;;;-145.12;100.00;63763.75;343184;28;138177;-71
2021/07/24 02:33:43;;;;;;;8.50;5.60;;;;;;;-145.12;100.00;63763.75;343499;28;136437;-70
2021/07/24 02:34:54;;;;;;;10.38;5.38;;;;;;;-145.12;100.00;63763.75;343470;28;137230;-70
2021/07/24 02:36:05;;;;;;;6.57;4.13;;;;;;;-145.12;100.00;63763.75;343740;28;137267;-72
2021/07/24 02:37:16;;;;;;;6.72;4.97;;;;;;;-145.12;100.00;63763.75;343248;28;137361;-71
2021/07/24 02:38:28;;;;;;;7.75;5.10;;;;;;;-145.12;100.00;63763.75;343421;28;138271;-72
2021/07/24 02:39:39;;;;;;;8.82;5.13;;;;;;;-145.12;100.00;63763.75;344869;28;137077;-71
2021/07/24 02:40:51;;;;;;;6.65;4.03;;;;;;;-145.12;100.00;63763.75;344531;28;137398;-70
2021/07/24 02:42:03;;;;;;;5.60;3.55;;;;;;;-145.12;100.00;63763.75;343388;28;135932;-71
2021/07/24 02:43:22;;;;;;;6.53;3.58;;;;;;;-145.12;100.00;63763.75;344935;28;137428;-71
2021/07/24 02:44:33;;;;;;;7.15;4.90;;;;;;;-145.12;100.00;63763.75;345673;28;136486;-72
2021/07/24 02:45:44;;;;;;;7.40;5.07;;;;;;;-145.12;100.00;63763.75;344275;28;138192;-70
2021/07/24 02:46:56;;;;;;;6.90;4.22;;;;;;;-145.12;100.00;63763.75;344092;28;137199;-71
2021/07/24 02:48:07;;;;;;;6.13;4.15;;;;;;;-145.12;100.00;63763.75;343384;28;138192;-72
2021/07/24 02:49:18;;;;;;;6.38;3.58;;;;;;;-145.12;100.00;63763.75;344855;28;138531;-71
2021/07/24 02:50:29;;;;;;;6.55;3.72;;;;;;;-145.12;100.00;63763.75;343459;28;137584;-71
2021/07/24 02:51:40;;;;;;;4.78;3.60;;;;;;;-145.12;100.00;63763.75;343837;28;137300;-69
2021/07/24 02:52:51;;;;;;;5.70;3.78;;;;;;;-145.12;100.00;63763.75;344686;28;137238;-71
2021/07/24 02:54:02;;;;;;;5.85;3.78;;;;;;;-145.12;100.00;63763.75;343295;28;138196;-71
2021/07/24 02:55:13;;;;;;;6.03;3.53;;;;;;;-145.12;100.00;63763.75;344809;28;138564;-71
2021/07/24 02:56:24;;;;;;;6.68;3.35;;;;;;;-145.12;100.00;63763.75;345672;28;137348;-71
2021/07/24 02:57:35;;;;;;;5.63;4.60;;;;;;;-145.12;100.00;63763.75;343459;28;138211;-71
2021/07/24 02:58:46;;;;;;;5.32;3.20;;;;;;;-145.12;100.00;63763.75;344171;28;137418;-71
2021/07/24 02:59:58;;;;;;;5.28;3.85;;;;;;;-145.12;100.00;63763.75;343490;28;137124;-71
2021/07/24 03:01:09;;;;;;;5.88;3.72;;;;;;;-145.12;100.00;63763.75;344711;28;138638;-72
2021/07/24 03:02:20;;;;;;;5.93;4.13;;;;;;;-145.12;100.00;63763.75;344817;28;137142;-71
2021/07/24 03:03:34;;;;;;;5.42;4.18;;;;;;;-145.12;100.00;63763.75;343785;28;161231;-71
2021/07/24 03:04:45;;;;;;;6.30;3.60;;;;;;;-145.12;100.00;63763.75;344668;28;137168;-71
2021/07/24 03:05:56;;;;;;;7.70;3.67;;;;;;;-145.12;100.00;63763.75;344424;28;137129;-70
2021/07/24 03:07:08;;;;;;;6.93;4.00;;;;;;;-145.12;100.00;63763.75;343462;28;137858;-71
2021/07/24 03:08:19;;;;;;;4.75;3.88;;;;;;;-145.12;100.00;63763.75;343450;28;161257;-70
2021/07/24 03:09:30;;;;;;;5.95;3.58;;;;;;;-145.12;100.00;63763.75;344837;28;137082;-71
2021/07/24 03:10:42;;;;;;;4.78;3.80;;;;;;;-145.12;100.00;63763.75;342862;28;159492;-70
2021/07/24 03:11:53;;;;;;;4.63;3.70;;;;;;;-145.12;100.00;63763.75;344546;28;137660;-70
2021/07/24 03:13:04;;;;;;;5.47;3.33;;;;;;;-145.12;100.00;63763.75;342903;28;159913;-72
2021/07/24 03:14:15;;;;;;;6.50;4.00;;;;;;;-145.12;100.00;63763.75;344829;28;136460;-71
2021/07/24 03:15:26;;;;;;;4.75;3.60;;;;;;;-145.12;100.00;63763.75;342508;28;160287;-70
2021/07/24 03:16:37;;;;;;;5.70;3.55;;;;;;;-145.12;100.00;63763.75;344338;28;138519;-70
2021/07/24 03:17:48;;;;;;;6.30;2.88;;;;;;;-145.12;100.00;63763.75;344609;28;136455;-71
2021/07/24 03:19:00;;;;;;;8.70;3.28;;;;;;;-145.12;100.00;63763.75;344797;28;137057;-71
2021/07/24 03:20:11;;;;;;;9.43;3.65;;;;;;;-145.12;100.00;63763.75;343844;28;138492;-70
2021/07/24 03:21:22;;;;;;;4.30;2.85;;;;;;;-145.12;100.00;63763.75;343887;28;136624;-70
2021/07/24 03:22:33;;;;;;;6.45;3.08;;;;;;;-145.12;100.00;63763.75;344802;28;137259;-70
2021/07/24 03:23:45;;;;;;;5.60;2.85;;;;;;;-145.12;100.00;63763.75;343877;28;138462;-71
2021/07/24 03:24:56;;;;;;;5.15;2.70;;;;;;;-145.12;100.00;63763.75;344545;28;138252;-70
2021/07/24 03:26:08;;;;;;;4.15;2.70;;;;;;;-145.12;100.00;63763.75;343504;28;138273;-70
2021/07/24 03:27:20;;;;;;;5.72;3.30;;;;;;;-145.12;100.00;63763.75;344721;28;137195;-70
2021/07/24 03:28:31;;;;;;;7.05;3.60;;;;;;;-145.12;100.00;63763.75;342580;28;160168;-70
2021/07/24 03:29:42;;;;;;;5.00;3.60;;;;;;;-145.12;100.00;63763.75;343651;28;138010;-71
2021/07/24 03:30:54;;;;;;;5.18;3.33;;;;;;;-145.12;100.00;63763.75;343393;28;138442;-70
2021/07/24 03:32:05;;;;;;;5.80;3.53;;;;;;;-145.12;100.00;63763.75;344461;28;137505;-71
2021/07/24 03:33:16;;;;;;;6.28;3.35;;;;;;;-145.12;100.00;63763.75;344496;28;136995;-71
2021/07/24 03:34:28;;;;;;;4.47;3.03;;;;;;;-145.12;100.00;63763.75;343261;28;135354;-70
2021/07/24 03:35:39;;;;;;;5.70;3.47;;;;;;;-145.12;100.00;63763.75;341772;28;138287;-71
2021/07/24 03:36:50;;;;;;;5.50;3.30;;;;;;;-145.12;100.00;63763.75;344341;28;138576;-72
2021/07/24 03:38:03;;;;;;;5.75;3.42;;;;;;;-145.12;100.00;63763.75;343634;28;136472;-69
2021/07/24 03:39:14;;;;;;;4.18;2.65;;;;;;;-145.12;100.00;63763.75;345041;28;137137;-71
2021/07/24 03:40:25;;;;;;;3.75;2.60;;;;;;;-145.12;100.00;63763.75;345890;28;137471;-70
2021/07/24 03:41:36;;;;;;;4.90;3.05;;;;;;;-145.12;100.00;63763.75;343382;28;138434;-70
2021/07/24 03:42:47;;;;;;;4.55;3.42;;;;;;;-145.12;100.00;63763.75;344265;28;137468;-71
2021/07/24 03:43:58;;;;;;;7.10;3.78;;;;;;;-145.12;100.00;63763.75;344649;28;137420;-70
2021/07/24 03:45:10;;;;;;;4.40;2.95;;;;;;;-145.12;100.00;63763.75;343432;28;137237;-71
2021/07/24 03:46:21;;;;;;;6.63;3.65;;;;;;;-145.12;100.00;63763.75;343287;28;136411;-71
2021/07/24 03:47:33;;;;;;;5.82;3.22;;;;;;;-145.12;100.00;63763.75;343350;28;138569;-71
2021/07/24 03:48:44;;;;;;;5.72;3.50;;;;;;;-145.12;100.00;63763.75;343241;28;160494;-70
2021/07/24 03:49:56;;;;;;;6.20;4.00;;;;;;;-145.12;100.00;63763.75;342755;28;160189;-72
2021/07/24 03:51:08;;;;;;;5.90;3.30;;;;;;;-145.12;100.00;63763.75;344602;28;137327;-71
2021/07/24 03:52:20;;;;;;;6.30;3.95;;;;;;;-145.12;100.00;63763.75;343146;28;136498;-73
2021/07/24 03:53:32;;;;;;;5.68;3.88;;;;;;;-145.12;100.00;63763.75;344534;28;136475;-72
2021/07/24 03:54:56;;;;;;;5.88;3.38;;;;;;;-145.12;100.00;63763.75;345999;28;136605;-73
2021/07/24 03:56:26;;;;;;;5.60;3.67;;;;;;;-145.12;100.00;63763.75;344186;28;136478;-72
2021/07/24 03:57:37;;;;;;;4.47;3.55;;;;;;;-145.12;100.00;63763.75;344548;28;137188;-72
2021/07/24 03:58:51;;;;;;;5.60;3.50;;;;;;;-145.12;100.00;63763.75;344243;28;138030;-72
2021/07/24 04:00:03;;;;;;;5.00;3.15;;;;;;;-145.12;100.00;63763.75;343209;28;137144;-71
2021/07/24 04:01:16;;;;;;;5.82;3.60;;;;;;;-145.12;100.00;63763.75;343337;28;137092;-73
2021/07/24 04:02:28;;;;;;;6.70;3.47;;;;;;;-145.12;100.00;63763.75;343946;28;138380;-70
2021/07/24 04:03:41;;;;;;;6.25;3.78;;;;;;;-145.12;100.00;63763.75;344843;28;138285;-70
2021/07/24 04:04:53;;;;;;;5.82;3.60;;;;;;;-145.12;100.00;63763.75;344423;28;137793;-71
2021/07/24 04:06:25;;;;;;;5.45;3.53;;;;;;;-145.12;100.00;63763.75;343505;28;136577;-72
2021/07/24 04:07:38;;;;;;;4.38;2.95;;;;;;;-145.12;100.00;63763.75;344447;28;137176;-71
2021/07/24 04:08:49;;;;;;;4.63;3.45;;;;;;;-145.12;100.00;63763.75;343700;28;159407;-71
2021/07/24 04:10:02;;;;;;;5.40;3.20;;;;;;;-145.12;100.00;63763.75;344402;28;137414;-71
2021/07/24 04:11:13;;;;;;;5.35;3.13;;;;;;;-145.12;100.00;63763.75;343484;28;136485;-70
2021/07/24 04:12:24;;;;;;;6.72;3.53;;;;;;;-145.12;100.00;63763.75;343350;28;138544;-71
2021/07/24 04:13:36;;;;;;;7.38;3.70;;;;;;;-145.12;100.00;63763.75;344037;28;137181;-72
2021/07/24 04:14:47;;;;;;;9.15;3.80;;;;;;;-145.12;100.00;63763.75;344415;28;138187;-71
2021/07/24 04:15:59;;;;;;;5.43;3.40;;;;;;;-145.12;100.00;63763.75;344476;28;138072;-72
2021/07/24 04:17:10;;;;;;;5.78;3.47;;;;;;;-145.12;100.00;63763.75;344262;28;137108;-72
2021/07/24 04:18:24;;;;;;;5.82;3.55;;;;;;;-145.12;100.00;63763.75;344332;28;136698;-72
2021/07/24 04:19:36;;;;;;;5.22;3.55;;;;;;;-145.12;100.00;63763.75;343333;28;137265;-72
2021/07/24 04:20:47;;;;;;;4.78;2.88;;;;;;;-145.12;100.00;63763.75;344124;28;136474;-72
2021/07/24 04:21:58;;;;;;;6.45;3.42;;;;;;;-145.12;100.00;63763.75;343550;28;138311;-72
2021/07/24 04:23:09;;;;;;;4.60;2.75;;;;;;;-145.12;100.00;63763.75;344420;28;138477;-72
2021/07/24 04:24:20;;;;;;;4.60;3.42;;;;;;;-145.12;100.00;63763.75;344531;28;137155;-72
2021/07/24 04:25:32;;;;;;;5.15;3.13;;;;;;;-145.12;100.00;63763.75;343240;28;137756;-72
2021/07/24 04:26:43;;;;;;;5.88;3.35;;;;;;;-145.12;100.00;63763.75;343635;28;137405;-72
2021/07/24 04:27:54;;;;;;;6.88;3.40;;;;;;;-145.12;100.00;63763.75;343372;28;137973;-73
2021/07/24 04:29:08;;;;;;;4.85;3.40;;;;;;;-145.12;100.00;63763.75;344481;28;137859;-72
2021/07/24 04:30:20;;;;;;;5.20;2.95;;;;;;;-145.12;100.00;63763.75;343191;28;136562;-72
2021/07/24 04:31:32;;;;;;;5.05;2.70;;;;;;;-145.12;100.00;63763.75;343715;28;137210;-71
2021/07/24 04:32:43;;;;;;;7.07;3.67;;;;;;;-145.12;100.00;63763.75;344421;28;137084;-71
2021/07/24 04:33:54;;;;;;;5.85;3.80;;;;;;;-145.12;100.00;63763.75;343222;28;137236;-71
2021/07/24 04:35:05;;;;;;;4.43;3.00;;;;;;;-145.12;100.00;63763.75;343290;28;137440;-73
2021/07/24 04:36:16;;;;;;;6.53;3.60;;;;;;;-145.12;100.00;63763.75;343374;28;136511;-72
2021/07/24 04:37:27;;;;;;;5.82;3.33;;;;;;;-145.12;100.00;63763.75;343349;28;137042;-71
2021/07/24 04:38:38;;;;;;;5.80;3.83;;;;;;;-145.12;100.00;63763.75;343695;28;136850;-72
2021/07/24 04:39:50;;;;;;;6.03;3.80;;;;;;;-145.12;100.00;63763.75;344478;28;138291;-72
2021/07/24 04:41:01;;;;;;;9.68;4.22;;;;;;;-145.12;100.00;63763.75;344288;28;138258;-72
2021/07/24 04:42:16;;;;;;;5.82;3.63;;;;;;;-145.12;100.00;63763.75;344395;28;138514;-72
2021/07/24 04:43:27;;;;;;;6.72;3.95;;;;;;;-145.12;100.00;63763.75;342417;28;160265;-72
2021/07/24 04:44:38;;;;;;;4.65;2.85;;;;;;;-145.12;100.00;63763.75;343262;28;138304;-70
2021/07/24 04:45:50;;;;;;;7.10;3.60;;;;;;;-145.12;100.00;63763.75;344594;28;136526;-71
2021/07/24 04:47:03;;;;;;;5.88;3.67;;;;;;;-145.12;100.00;63763.75;343634;28;138210;-71
2021/07/24 04:48:14;;;;;;;6.78;3.92;;;;;;;-145.12;100.00;63763.75;343174;28;138487;-71
2021/07/24 04:49:26;;;;;;;6.30;3.67;;;;;;;-145.12;100.00;63763.75;343245;28;136594;-71
2021/07/24 04:50:45;;;;;;;6.53;3.70;;;;;;;-145.12;100.00;63763.75;343661;28;136407;-71
2021/07/24 04:51:58;;;;;;;5.20;3.08;;;;;;;-145.12;100.00;63763.75;343233;28;137798;-71
2021/07/24 04:53:10;;;;;;;7.60;3.85;;;;;;;-145.12;100.00;63763.75;344648;28;138432;-71
2021/07/24 04:54:21;;;;;;;5.65;3.65;;;;;;;-145.12;100.00;63763.75;343320;28;137432;-71
2021/07/24 04:55:34;;;;;;;5.53;3.78;;;;;;;-145.12;100.00;63763.75;344367;28;138125;-71
2021/07/24 04:56:46;;;;;;;5.78;3.63;;;;;;;-145.12;100.00;63763.75;345164;28;138493;-71
2021/07/24 04:57:57;;;;;;;8.38;3.60;;;;;;;-145.12;100.00;63763.75;344689;28;137408;-71
2021/07/24 04:59:09;;;;;;;6.28;3.80;;;;;;;-145.12;100.00;63763.75;344611;28;138521;-71
2021/07/24 05:00:20;;;;;;;6.15;3.80;;;;;;;-145.12;100.00;63763.75;342525;28;161841;-71
2021/07/24 05:01:34;;;;;;;6.15;3.53;;;;;;;-145.12;100.00;63763.75;345412;28;137009;-71
2021/07/24 05:02:45;;;;;;;6.40;3.50;;;;;;;-145.12;100.00;63763.75;344918;28;138224;-71
2021/07/24 05:03:57;;;;;;;5.90;3.38;;;;;;;-145.12;100.00;63763.75;344280;28;138566;-71
2021/07/24 05:05:09;;;;;;;6.93;4.13;;;;;;;-145.12;100.00;63763.75;344139;28;137454;-71
2021/07/24 05:06:20;;;;;;;6.47;3.60;;;;;;;-145.12;100.00;63763.75;344537;28;137013;-71
2021/07/24 05:07:31;;;;;;;5.50;3.13;;;;;;;-145.12;100.00;63763.75;343047;28;137247;-71
2021/07/24 05:08:44;;;;;;;5.22;3.05;;;;;;;-145.12;100.00;63763.75;341236;28;161339;-71
2021/07/24 05:09:55;;;;;;;6.03;3.80;;;;;;;-145.12;100.00;63763.75;343127;28;136972;-70
2021/07/24 05:11:07;;;;;;;5.72;3.60;;;;;;;-145.12;100.00;63763.75;342572;28;160910;-72
2021/07/24 05:12:18;;;;;;;7.65;4.00;;;;;;;-145.12;100.00;63763.75;342291;28;160035;-70
2021/07/24 05:13:30;;;;;;;6.32;3.67;;;;;;;-145.12;100.00;63763.75;343322;28;137261;-72
2021/07/24 05:14:41;;;;;;;5.57;3.80;;;;;;;-145.12;100.00;63763.75;344793;28;138532;-71
2021/07/24 05:15:53;;;;;;;7.18;4.20;;;;;;;-145.12;100.00;63763.75;345711;28;137196;-72
2021/07/24 05:17:05;;;;;;;6.40;3.95;;;;;;;-145.12;100.00;63763.75;343216;28;137097;-72
2021/07/24 05:18:16;;;;;;;7.28;3.90;;;;;;;-145.12;100.00;63763.75;342495;28;159957;-71
2021/07/24 05:19:27;;;;;;;8.43;4.28;;;;;;;-145.12;100.00;63763.75;344801;28;137079;-71
2021/07/24 05:20:44;;;;;;;7.60;4.13;;;;;;;-145.12;100.00;63763.75;345635;28;136523;-71
2021/07/24 05:21:55;;;;;;;7.28;3.85;;;;;;;-145.12;100.00;63763.75;344157;28;136433;-70
2021/07/24 05:23:07;;;;;;;5.40;3.88;;;;;;;-145.12;100.00;63763.75;343297;28;137256;-71
2021/07/24 05:24:18;;;;;;;5.10;3.17;;;;;;;-145.12;100.00;63763.75;343193;28;136545;-71
2021/07/24 05:25:29;;;;;;;6.07;4.10;;;;;;;-145.12;100.00;63763.75;343191;28;138280;-70
2021/07/24 05:26:43;;;;;;;5.93;3.80;;;;;;;-145.12;100.00;63763.75;344426;28;137219;-70
2021/07/24 05:27:54;;;;;;;7.85;4.63;;;;;;;-145.12;100.00;63763.75;343278;28;138140;-71
2021/07/24 05:29:05;;;;;;;8.13;4.18;;;;;;;-145.12;100.00;63763.75;343157;28;137497;-71
2021/07/24 05:30:16;;;;;;;6.30;4.38;;;;;;;-145.12;100.00;63763.75;343831;28;160290;-71
2021/07/24 05:31:29;;;;;;;6.20;3.97;;;;;;;-145.12;100.00;63763.75;345726;28;137086;-71
2021/07/24 05:32:42;;;;;;;7.50;3.95;;;;;;;-145.12;100.00;63763.75;344476;28;137374;-71